createdAt,value
2016-06-08T09:55:37.891Z,26.37
2016-06-08T09:56:37.893Z,26.37
2016-06-08T09:57:37.756Z,26.38
2016-06-08T09:58:37.899Z,26.41
2016-06-08T09:59:38.432Z,26.3
2016-06-08T10:01:44.657Z,26.38
2016-06-08T10:02:44.816Z,26.37
2016-06-08T10:03:44.443Z,26.41
2016-06-08T10:04:43.900Z,26.42
2016-06-08T10:05:44.403Z,26.39
2016-06-08T10:06:44.390Z,26.42
2016-06-08T10:07:45.299Z,26.38
2016-06-08T10:08:44.410Z,26.42
2016-06-08T10:09:44.414Z,26.44
2016-06-08T10:10:44.994Z,26.47
2016-06-08T10:11:45.012Z,26.5
2016-06-08T10:12:44.547Z,26.47
2016-06-08T10:13:44.924Z,26.47
2016-06-08T10:14:44.520Z,26.54
2016-06-08T10:15:44.461Z,26.53
2016-06-08T10:16:44.620Z,26.49
2016-06-08T10:17:45.294Z,26.5
2016-06-08T10:18:44.843Z,26.5
2016-06-08T10:19:45.330Z,26.39
2016-06-08T10:20:45.036Z,26.42
2016-06-08T10:21:46.180Z,26.42
2016-06-08T10:22:45.354Z,26.49
2016-06-08T10:23:45.122Z,26.49
2016-06-08T10:24:45.828Z,26.47
2016-06-08T10:25:44.471Z,26.47
2016-06-08T10:26:44.084Z,26.45
2016-06-08T10:27:45.102Z,26.5
2016-06-08T10:28:45.152Z,26.42
2016-06-08T10:29:44.763Z,26.41
2016-06-08T10:30:44.610Z,26.47
2016-06-08T10:31:44.722Z,26.39
2016-06-08T10:32:44.897Z,26.45
2016-06-08T10:33:44.493Z,26.45
2016-06-08T10:34:44.652Z,26.44
2016-06-08T10:35:44.701Z,26.45
2016-06-08T10:36:45.345Z,26.47
2016-06-08T10:37:44.692Z,26.42
2016-06-08T10:38:45.226Z,26.44
2016-06-08T10:39:44.806Z,26.41
2016-06-08T10:40:44.731Z,26.45
2016-06-08T10:41:44.718Z,26.44
2016-06-08T10:42:44.986Z,26.44
2016-06-08T10:43:46.380Z,26.41
2016-06-08T10:44:44.773Z,26.44
2016-06-08T10:45:44.728Z,26.38
2016-06-08T10:46:44.747Z,26.49
2016-06-08T10:47:44.749Z,26.5
2016-06-08T10:48:44.752Z,26.47
2016-06-08T10:49:44.786Z,26.41
2016-06-08T10:50:44.930Z,26.38
2016-06-08T10:51:44.791Z,26.42
2016-06-08T10:52:47.029Z,26.5
2016-06-08T10:53:44.797Z,26.37
2016-06-08T10:54:44.925Z,26.49
2016-06-08T10:55:44.818Z,26.42
2016-06-08T10:56:45.695Z,26.45
2016-06-08T10:57:44.917Z,26.38
2016-06-08T10:58:45.388Z,26.38
2016-06-08T10:59:46.001Z,26.41
2016-06-08T11:00:46.722Z,26.38
2016-06-08T11:01:44.866Z,26.47
2016-06-08T11:02:44.884Z,26.47
2016-06-08T11:03:45.137Z,26.38
2016-06-08T11:04:44.904Z,26.41
2016-06-08T11:05:45.157Z,26.41
2016-06-08T11:06:44.910Z,26.42
2016-06-08T11:07:44.945Z,26.41
2016-06-08T11:08:44.931Z,26.38
2016-06-08T11:09:44.934Z,26.44
2016-06-08T11:10:45.670Z,26.32
2016-06-08T11:11:45.205Z,26.38
2016-06-08T11:12:44.958Z,26.37
2016-06-08T11:13:44.835Z,26.35
2016-06-08T11:14:44.994Z,26.35
2016-06-08T11:15:45.216Z,26.35
2016-06-08T11:16:45.061Z,26.39
2016-06-08T11:17:45.205Z,26.37
2016-06-08T11:18:45.020Z,26.37
2016-06-08T11:19:45.038Z,26.38
2016-06-08T11:20:45.026Z,26.32
2016-06-08T11:21:44.889Z,26.32
2016-06-08T11:22:45.046Z,26.31
2016-06-08T11:23:45.066Z,26.34
2016-06-08T11:24:45.068Z,26.44
2016-06-08T11:25:45.071Z,26.44
2016-06-08T11:26:44.933Z,26.31
2016-06-08T11:27:46.810Z,26.42
2016-06-08T11:28:47.047Z,26.38
2016-06-08T11:29:46.910Z,26.32
2016-06-08T11:30:45.131Z,26.41
2016-06-08T11:31:45.134Z,26.38
2016-06-08T11:32:45.152Z,26.39
2016-06-08T11:33:45.139Z,26.39
2016-06-08T11:34:45.173Z,26.41
2016-06-08T11:35:45.207Z,26.34
2016-06-08T11:36:45.178Z,26.41
2016-06-08T11:37:45.181Z,26.38
2016-06-08T11:38:45.198Z,26.34
2016-06-08T11:39:45.201Z,26.39
2016-06-08T11:40:45.205Z,26.41
2016-06-08T11:41:45.239Z,26.37
2016-06-08T11:42:45.226Z,26.42
2016-06-08T11:43:45.244Z,26.38
2016-06-08T11:44:45.606Z,26.31
2016-06-08T11:45:46.078Z,26.38
2016-06-08T11:46:45.268Z,26.34
2016-06-08T11:47:45.270Z,26.41
2016-06-08T11:48:45.289Z,26.34
2016-06-08T11:49:45.432Z,26.38
2016-06-08T11:50:45.435Z,26.37
2016-06-08T11:51:45.188Z,26.32
2016-06-08T11:52:45.174Z,26.39
2016-06-08T11:53:45.333Z,26.37
2016-06-08T11:54:45.180Z,26.32
2016-06-08T11:55:45.338Z,26.35
2016-06-08T11:56:45.202Z,26.41
2016-06-08T11:57:45.375Z,26.42
2016-06-08T11:58:46.127Z,26.38
2016-06-08T11:59:45.740Z,26.32
2016-06-08T12:00:45.243Z,26.5
2016-06-08T12:01:45.557Z,26.31
2016-06-08T12:02:45.421Z,26.44
2016-06-08T12:03:45.423Z,26.44
2016-06-08T12:04:45.128Z,26.42
2016-06-08T12:05:45.444Z,26.27
2016-06-08T12:06:45.431Z,26.32
2016-06-08T12:07:45.434Z,26.32
2016-06-08T12:08:45.452Z,26.38
2016-06-08T12:09:45.345Z,26.39
2016-06-08T12:10:45.473Z,26.47
2016-06-08T12:11:45.335Z,26.35
2016-06-08T12:12:45.837Z,26.39
2016-06-08T12:13:45.403Z,26.47
2016-06-08T12:14:45.500Z,26.38
2016-06-08T12:15:45.517Z,26.35
2016-06-08T12:16:45.583Z,26.38
2016-06-08T12:17:45.554Z,26.35
2016-06-08T12:18:45.603Z,26.35
2016-06-08T12:19:45.419Z,26.42
2016-06-08T12:20:47.124Z,26.35
2016-06-08T12:21:46.830Z,26.37
2016-06-08T12:22:45.755Z,26.37
2016-06-08T12:23:46.695Z,26.39
2016-06-08T12:24:46.526Z,26.39
2016-06-08T12:25:46.263Z,26.39
2016-06-08T12:26:46.766Z,26.32
2016-06-08T12:27:46.222Z,26.34
2016-06-08T12:28:45.772Z,26.41
2016-06-08T12:29:47.211Z,26.38
2016-06-08T12:30:46.151Z,26.31
2016-06-08T12:31:49.358Z,26.41
2016-06-08T12:32:45.813Z,26.32
2016-06-08T12:33:45.441Z,26.34
2016-06-08T12:34:45.724Z,26.34
2016-06-08T12:35:45.899Z,26.34
2016-06-08T12:36:47.199Z,26.42
2016-06-08T12:37:46.232Z,26.35
2016-06-08T12:38:46.235Z,26.35
2016-06-08T12:39:46.270Z,26.42
2016-06-08T12:40:45.928Z,26.39
2016-06-08T12:41:45.728Z,26.42
2016-06-08T12:42:45.746Z,26.38
2016-06-08T12:43:45.749Z,26.39
2016-06-08T12:44:46.470Z,26.42
2016-06-08T12:45:45.770Z,26.39
2016-06-08T12:46:46.086Z,26.41
2016-06-08T12:47:45.822Z,26.42
2016-06-08T12:48:47.044Z,26.35
2016-06-08T12:49:47.203Z,26.38
2016-06-08T12:50:56.033Z,26.35
2016-06-08T12:51:47.442Z,26.31
2016-06-08T12:52:46.492Z,26.38
2016-06-08T12:53:46.088Z,26.34
2016-06-08T12:54:45.903Z,26.35
2016-06-08T12:55:45.860Z,26.42
2016-06-08T12:56:46.690Z,26.39
2016-06-08T12:57:46.444Z,26.47
2016-06-08T12:58:46.086Z,26.5
2016-06-08T12:59:47.761Z,26.35
2016-06-08T13:01:20.374Z,26.32
2016-06-08T13:01:46.469Z,26.45
2016-06-08T13:02:47.050Z,26.38
2016-06-08T13:03:46.568Z,26.34
2016-06-08T13:04:46.337Z,26.45
2016-06-08T13:05:46.793Z,26.35
2016-06-08T13:06:46.451Z,26.47
2016-06-08T13:07:46.360Z,26.39
2016-06-08T13:08:45.550Z,26.41
2016-06-08T13:09:45.537Z,26.37
2016-06-08T13:10:47.041Z,26.34
2016-06-08T13:11:46.309Z,26.44
2016-06-08T13:12:46.061Z,26.39
2016-06-08T13:13:46.611Z,26.41
2016-06-08T13:14:45.567Z,26.32
2016-06-08T13:15:46.710Z,26.38
2016-06-08T13:16:46.322Z,26.39
2016-06-08T13:17:46.215Z,26.38
2016-06-08T13:18:46.921Z,26.34
2016-06-08T13:19:46.486Z,26.41
2016-06-08T13:20:46.506Z,26.31
2016-06-08T13:21:46.101Z,26.37
2016-06-08T13:22:46.432Z,26.3
2016-06-08T13:23:46.091Z,26.41
2016-06-08T13:24:46.688Z,26.44
2016-06-08T13:25:46.472Z,26.41
2016-06-08T13:26:47.005Z,26.41
2016-06-08T13:27:46.680Z,26.32
2016-06-08T13:28:46.120Z,26.39
2016-06-08T13:29:47.294Z,26.37
2016-06-08T13:30:47.688Z,26.42
2016-06-08T13:31:46.175Z,26.34
2016-06-08T13:32:46.474Z,26.38
2016-06-08T13:33:46.165Z,26.3
2016-06-08T13:34:46.793Z,26.41
2016-06-08T13:35:47.249Z,26.38
2016-06-08T13:36:46.391Z,26.41
2016-06-08T13:37:46.628Z,26.44
2016-06-08T13:38:46.678Z,26.44
2016-06-08T13:39:46.713Z,26.42
2016-06-08T13:40:46.277Z,26.39
2016-06-08T13:41:46.249Z,26.38
2016-06-08T13:42:46.251Z,26.45
2016-06-08T13:43:46.254Z,26.45
2016-06-08T13:44:47.101Z,26.44
2016-06-08T13:45:46.198Z,26.34
2016-06-08T13:46:46.278Z,26.41
2016-06-08T13:47:46.296Z,26.52
2016-06-08T13:48:46.362Z,26.35
2016-06-08T13:49:46.301Z,26.41
2016-06-08T13:50:46.554Z,26.41
2016-06-08T13:51:46.369Z,26.42
2016-06-08T13:52:46.325Z,26.37
2016-06-08T13:53:47.078Z,26.35
2016-06-08T13:54:46.346Z,26.35
2016-06-08T13:55:46.365Z,26.45
2016-06-08T13:56:46.367Z,26.41
2016-06-08T13:57:46.401Z,26.41
2016-06-08T13:58:46.389Z,26.39
2016-06-08T13:59:46.235Z,26.31
2016-06-08T14:00:46.597Z,26.38
2016-06-08T14:01:46.412Z,26.31
2016-06-08T14:02:46.430Z,26.34
2016-06-08T14:03:46.433Z,26.45
2016-06-08T14:04:46.436Z,26.38
2016-06-08T14:05:46.438Z,26.44
2016-06-08T14:06:46.441Z,26.41
2016-06-08T14:07:46.460Z,26.3
2016-06-08T14:08:46.462Z,26.44
2016-06-08T14:09:46.479Z,26.32
2016-06-08T14:10:46.483Z,26.39
2016-06-08T14:11:46.485Z,26.38
2016-06-08T14:12:46.576Z,26.31
2016-06-08T14:13:46.769Z,26.32
2016-06-08T14:14:47.884Z,26.42
2016-06-08T14:15:47.750Z,26.41
2016-06-08T14:16:47.318Z,26.37
2016-06-08T14:17:47.435Z,26.38
2016-06-08T14:18:47.516Z,26.31
2016-06-08T14:19:47.443Z,26.34
2016-06-08T14:20:47.664Z,26.34
2016-06-08T14:21:47.730Z,26.41
2016-06-08T14:22:47.796Z,26.39
2016-06-08T14:23:47.806Z,26.41
2016-06-08T14:24:47.863Z,26.38
2016-06-08T14:25:47.873Z,26.42
2016-06-08T14:26:47.914Z,26.39
2016-06-08T14:27:47.933Z,26.44
2016-06-08T14:28:47.944Z,26.47
2016-06-08T14:29:47.971Z,26.34
2016-06-08T14:30:48.436Z,26.47
2016-06-08T14:31:48.009Z,26.34
2016-06-08T14:32:48.018Z,26.41
2016-06-08T14:33:48.025Z,26.39
2016-06-08T14:34:48.047Z,26.38
2016-06-08T14:35:47.896Z,26.41
2016-06-08T14:36:47.746Z,26.42
2016-06-08T14:37:48.080Z,26.37
2016-06-08T14:38:48.084Z,26.27
2016-06-08T14:39:48.088Z,26.37
2016-06-08T14:40:48.310Z,26.37
2016-06-08T14:41:48.112Z,26.35
2016-06-08T14:42:48.132Z,26.34
2016-06-08T14:43:48.135Z,26.3
2016-06-08T14:44:48.155Z,26.32
2016-06-08T14:45:48.829Z,26.38
2016-06-08T14:46:48.162Z,26.37
2016-06-08T14:47:48.180Z,26.37
2016-06-08T14:48:48.183Z,26.38
2016-06-08T14:49:48.186Z,26.37
2016-06-08T14:50:48.189Z,26.37
2016-06-08T14:51:48.208Z,26.34
2016-06-08T14:52:48.211Z,26.32
2016-06-08T14:53:48.229Z,26.37
2016-06-08T14:54:48.248Z,26.35
2016-06-08T14:55:48.251Z,26.34
2016-06-08T14:56:48.255Z,26.35
2016-06-08T14:57:48.274Z,26.31
2016-06-08T14:58:48.260Z,26.37
2016-06-08T14:59:48.280Z,26.35
2016-06-08T15:00:48.345Z,26.34
2016-06-08T15:01:48.301Z,26.34
2016-06-08T15:02:48.304Z,26.34
2016-06-08T15:03:48.307Z,26.31
2016-06-08T15:04:48.326Z,26.39
2016-06-08T15:05:48.329Z,26.37
2016-06-08T15:06:48.348Z,26.31
2016-06-08T15:07:48.351Z,26.32
2016-06-08T15:08:48.355Z,26.31
2016-06-08T15:09:48.358Z,26.3
2016-06-08T15:10:48.610Z,26.32
2016-06-08T15:11:48.378Z,26.34
2016-06-08T15:12:48.381Z,26.32
2016-06-08T15:13:48.416Z,26.34
2016-06-08T15:14:48.419Z,26.35
2016-06-08T15:15:48.844Z,26.23
2016-06-08T15:16:48.425Z,26.34
2016-06-08T15:17:48.428Z,26.23
2016-06-08T15:18:48.681Z,26.32
2016-06-08T15:19:48.450Z,26.32
2016-06-08T15:20:48.453Z,26.32
2016-06-08T15:21:48.472Z,26.27
2016-06-08T15:22:48.475Z,26.32
2016-06-08T15:23:48.494Z,26.34
2016-06-08T15:24:48.481Z,26.26
2016-06-08T15:25:48.500Z,26.26
2016-06-08T15:26:48.502Z,26.27
2016-06-08T15:27:48.522Z,26.3
2016-06-08T15:28:48.524Z,26.37
2016-06-08T15:29:48.559Z,26.27
2016-06-08T15:30:48.547Z,26.32
2016-06-08T15:31:48.550Z,26.23
2016-06-08T15:32:48.568Z,26.23
2016-06-08T15:33:48.571Z,26.26
2016-06-08T15:34:48.590Z,26.3
2016-06-08T15:35:48.594Z,26.35
2016-06-08T15:36:48.597Z,26.24
2016-06-08T15:37:48.444Z,26.26
2016-06-08T15:38:48.618Z,26.27
2016-06-08T15:39:48.621Z,26.24
2016-06-08T15:40:48.640Z,26.32
2016-06-08T15:41:48.643Z,26.3
2016-06-08T15:42:48.646Z,26.3
2016-06-08T15:43:48.665Z,26.31
2016-06-08T15:44:48.668Z,26.24
2016-06-08T15:45:49.218Z,26.3
2016-06-08T15:46:48.689Z,26.26
2016-06-08T15:47:48.692Z,26.35
2016-06-08T15:48:48.711Z,26.26
2016-06-08T15:49:48.715Z,26.32
2016-06-08T15:50:48.765Z,26.2
2016-06-08T15:51:48.721Z,26.31
2016-06-08T15:52:48.739Z,26.2
2016-06-08T15:53:48.743Z,26.31
2016-06-08T15:54:48.589Z,26.26
2016-06-08T15:55:48.749Z,26.23
2016-06-08T15:56:48.767Z,26.26
2016-06-08T15:57:48.786Z,26.32
2016-06-08T15:58:48.789Z,26.27
2016-06-08T15:59:48.792Z,26.35
2016-06-08T16:00:49.389Z,26.32
2016-06-08T16:01:49.188Z,26.3
2016-06-08T16:02:48.832Z,26.3
2016-06-08T16:03:48.836Z,26.31
2016-06-08T16:04:48.855Z,26.27
2016-06-08T16:05:48.858Z,26.2
2016-06-08T16:06:48.844Z,26.27
2016-06-08T16:07:48.864Z,26.26
2016-06-08T16:08:48.882Z,26.26
2016-06-08T16:09:48.901Z,26.3
2016-06-08T16:10:48.888Z,26.22
2016-06-08T16:11:48.907Z,26.22
2016-06-08T16:12:48.894Z,26.24
2016-06-08T16:13:48.758Z,26.26
2016-06-08T16:14:48.932Z,26.22
2016-06-08T16:15:49.606Z,26.27
2016-06-08T16:16:49.142Z,26.3
2016-06-08T16:17:48.956Z,26.3
2016-06-08T16:18:48.975Z,26.22
2016-06-08T16:19:48.962Z,26.22
2016-06-08T16:20:48.982Z,26.35
2016-06-08T16:21:49.000Z,26.27
2016-06-08T16:22:49.019Z,26.35
2016-06-08T16:23:49.335Z,26.34
2016-06-08T16:24:49.009Z,26.35
2016-06-08T16:25:49.294Z,26.24
2016-06-08T16:26:48.719Z,26.17
2016-06-08T16:27:48.893Z,26.3
2016-06-08T16:28:49.053Z,26.3
2016-06-08T16:29:49.056Z,26.32
2016-06-08T16:30:49.168Z,26.27
2016-06-08T16:31:49.155Z,26.3
2016-06-08T16:32:49.096Z,26.23
2016-06-08T16:33:49.084Z,26.24
2016-06-08T16:34:49.103Z,26.34
2016-06-08T16:35:49.105Z,26.32
2016-06-08T16:36:48.953Z,26.24
2016-06-08T16:37:49.128Z,26.34
2016-06-08T16:38:49.131Z,26.32
2016-06-08T16:39:49.165Z,26.27
2016-06-08T16:40:49.388Z,26.34
2016-06-08T16:41:49.172Z,26.24
2016-06-08T16:42:49.174Z,26.34
2016-06-08T16:43:48.709Z,26.3
2016-06-08T16:44:49.181Z,26.3
2016-06-08T16:45:49.542Z,26.22
2016-06-08T16:46:49.218Z,26.2
2016-06-08T16:47:49.221Z,26.27
2016-06-08T16:48:49.068Z,26.31
2016-06-08T16:49:49.227Z,26.26
2016-06-08T16:50:49.089Z,26.22
2016-06-08T16:51:50.202Z,26.31
2016-06-08T16:52:49.252Z,26.23
2016-06-08T16:53:49.270Z,26.2
2016-06-08T16:54:49.289Z,26.26
2016-06-08T16:55:49.120Z,26.3
2016-06-08T16:56:49.296Z,26.24
2016-06-08T16:57:49.298Z,26.32
2016-06-08T16:58:49.302Z,26.24
2016-06-08T16:59:49.320Z,26.19
2016-06-08T17:00:50.183Z,26.23
2016-06-08T17:01:49.388Z,26.24
2016-06-08T17:02:49.345Z,26.17
2016-06-08T17:03:49.520Z,26.2
2016-06-08T17:04:49.367Z,26.23
2016-06-08T17:05:49.385Z,26.24
2016-06-08T17:06:49.373Z,26.19
2016-06-08T17:07:49.392Z,26.19
2016-06-08T17:08:49.394Z,26.26
2016-06-08T17:09:49.397Z,26.07
2016-06-08T17:10:49.401Z,26.19
2016-06-08T17:11:49.419Z,26.16
2016-06-08T17:12:49.423Z,26.17
2016-06-08T17:13:49.441Z,26.07
2016-06-08T17:14:49.445Z,26.16
2016-06-08T17:15:49.307Z,26.19
2016-06-08T17:16:50.138Z,26.19
2016-06-08T17:17:49.485Z,26.17
2016-06-08T17:18:49.472Z,26.11
2016-06-08T17:19:49.491Z,26.24
2016-06-08T17:20:49.510Z,26.15
2016-06-08T17:21:49.514Z,26.11
2016-06-08T17:22:49.516Z,26.17
2016-06-08T17:23:49.520Z,26.16
2016-06-08T17:24:49.538Z,26.12
2016-06-08T17:25:49.540Z,26.15
2016-06-08T17:26:49.544Z,26.19
2016-06-08T17:27:49.562Z,26.17
2016-06-08T17:28:50.550Z,26.15
2016-06-08T17:29:49.678Z,26.11
2016-06-08T17:30:50.181Z,26.11
2016-06-08T17:31:49.590Z,26.11
2016-06-08T17:32:49.625Z,26.09
2016-06-08T17:33:49.613Z,26.11
2016-06-08T17:34:49.631Z,26.17
2016-06-08T17:35:49.635Z,26.16
2016-06-08T17:36:49.996Z,26.11
2016-06-08T17:37:49.641Z,26.17
2016-06-08T17:38:49.643Z,26.15
2016-06-08T17:39:49.661Z,26.11
2016-06-08T17:40:49.681Z,26.06
2016-06-08T17:41:49.684Z,26.11
2016-06-08T17:42:49.687Z,26.15
2016-06-08T17:43:49.690Z,26.16
2016-06-08T17:44:49.693Z,26.11
2016-06-08T17:45:49.758Z,26.16
2016-06-08T17:46:49.727Z,26.16
2016-06-08T17:47:49.747Z,26.07
2016-06-08T17:48:49.733Z,26.12
2016-06-08T17:49:49.736Z,26.16
2016-06-08T17:50:49.771Z,26.17
2016-06-08T17:51:49.758Z,26.16
2016-06-08T17:52:49.777Z,26.17
2016-06-08T17:53:49.780Z,26.09
2016-06-08T17:54:49.782Z,26.17
2016-06-08T17:55:49.646Z,26.15
2016-06-08T17:56:50.183Z,26.12
2016-06-08T17:57:49.824Z,26.15
2016-06-08T17:58:50.154Z,26.15
2016-06-08T17:59:49.814Z,26.12
2016-06-08T18:00:50.758Z,26.09
2016-06-08T18:01:50.289Z,26.11
2016-06-08T18:02:49.854Z,26.15
2016-06-08T18:03:49.858Z,26.17
2016-06-08T18:04:49.876Z,26.15
2016-06-08T18:05:49.879Z,26.16
2016-06-08T18:06:49.883Z,26.11
2016-06-08T18:07:49.901Z,26.17
2016-06-08T18:08:49.904Z,26.15
2016-06-08T18:09:49.908Z,26.09
2016-06-08T18:10:49.926Z,26.16
2016-06-08T18:11:49.929Z,26.15
2016-06-08T18:12:49.932Z,26.15
2016-06-08T18:13:49.952Z,26.09
2016-06-08T18:14:49.954Z,26.06
2016-06-08T18:15:50.504Z,26.15
2016-06-08T18:16:49.975Z,26.09
2016-06-08T18:17:49.978Z,26.11
2016-06-08T18:18:49.998Z,26.15
2016-06-08T18:19:49.984Z,26.17
2016-06-08T18:20:50.003Z,26.12
2016-06-08T18:21:50.007Z,26.12
2016-06-08T18:22:50.026Z,26.11
2016-06-08T18:23:50.029Z,26.11
2016-06-08T18:24:50.032Z,26.17
2016-06-08T18:25:50.035Z,26.07
2016-06-08T18:26:50.069Z,26.04
2016-06-08T18:27:50.072Z,25.99
2016-06-08T18:28:49.920Z,25.99
2016-06-08T18:29:50.078Z,25.99
2016-06-08T18:30:49.925Z,26.09
2016-06-08T18:31:50.600Z,26.01
2016-06-08T18:32:49.963Z,26
2016-06-08T18:33:50.106Z,26.01
2016-06-08T18:34:50.125Z,25.97
2016-06-08T18:35:50.128Z,26
2016-06-08T18:36:50.194Z,25.96
2016-06-08T18:37:50.150Z,26
2016-06-08T18:38:50.153Z,25.99
2016-06-08T18:39:50.000Z,25.99
2016-06-08T18:40:50.174Z,26.03
2016-06-08T18:41:50.193Z,26.01
2016-06-08T18:42:50.196Z,25.97
2016-06-08T18:43:50.199Z,25.94
2016-06-08T18:44:50.218Z,25.99
2016-06-08T18:45:50.237Z,26.03
2016-06-08T18:46:50.536Z,26.07
2016-06-08T18:47:50.242Z,25.96
2016-06-08T18:48:50.246Z,26
2016-06-08T18:49:50.264Z,25.94
2016-06-08T18:50:50.267Z,25.97
2016-06-08T18:51:50.115Z,25.99
2016-06-08T18:52:50.274Z,25.96
2016-06-08T18:53:50.293Z,25.89
2016-06-08T18:54:50.327Z,25.97
2016-06-08T18:55:50.378Z,25.94
2016-06-08T18:56:50.317Z,25.93
2016-06-08T18:57:50.337Z,25.96
2016-06-08T18:58:50.339Z,25.94
2016-06-08T18:59:50.467Z,25.88
2016-06-08T19:00:50.345Z,25.89
2016-06-08T19:01:50.364Z,25.86
2016-06-08T19:02:50.446Z,25.91
2016-06-08T19:03:50.511Z,25.91
2016-06-08T19:04:50.592Z,25.89
2016-06-08T19:05:50.470Z,25.89
2016-06-08T19:06:50.708Z,25.86
2016-06-08T19:07:50.602Z,25.88
2016-06-08T19:08:50.573Z,25.84
2016-06-08T19:09:50.545Z,25.86
2016-06-08T19:10:50.485Z,25.82
2016-06-08T19:11:50.599Z,25.88
2016-06-08T19:12:50.444Z,25.88
2016-06-08T19:13:50.494Z,25.82
2016-06-08T19:14:50.514Z,25.86
2016-06-08T19:15:50.626Z,25.85
2016-06-08T19:16:50.989Z,25.86
2016-06-08T19:17:50.382Z,25.86
2016-06-08T19:18:50.573Z,25.79
2016-06-08T19:19:50.716Z,25.86
2016-06-08T19:20:50.579Z,25.88
2016-06-08T19:21:50.629Z,25.86
2016-06-08T19:22:50.710Z,25.81
2016-06-08T19:23:50.636Z,25.84
2016-06-08T19:24:50.638Z,25.81
2016-06-08T19:25:50.734Z,25.86
2016-06-08T19:26:50.551Z,25.79
2016-06-08T19:27:50.585Z,25.76
2016-06-08T19:28:50.682Z,25.76
2016-06-08T19:29:50.449Z,25.75
2016-06-08T19:30:50.594Z,25.85
2016-06-08T19:31:51.706Z,25.79
2016-06-08T19:32:51.147Z,25.82
2016-06-08T19:33:50.634Z,25.78
2016-06-08T19:34:50.653Z,25.81
2016-06-08T19:35:50.703Z,25.78
2016-06-08T19:36:50.831Z,25.74
2016-06-08T19:37:50.834Z,25.74
2016-06-08T19:38:50.821Z,25.76
2016-06-08T19:39:50.902Z,25.74
2016-06-08T19:40:50.577Z,25.76
2016-06-08T19:41:50.690Z,25.76
2016-06-08T19:42:50.725Z,25.76
2016-06-08T19:43:51.212Z,25.78
2016-06-08T19:44:50.762Z,25.76
2016-06-08T19:45:53.499Z,25.82
2016-06-08T19:46:50.846Z,25.82
2016-06-08T19:47:51.255Z,25.76
2016-06-08T19:48:50.587Z,25.71
2016-06-08T19:49:50.761Z,25.74
2016-06-08T19:50:50.921Z,25.75
2016-06-08T19:51:50.768Z,25.76
2016-06-08T19:52:50.770Z,25.71
2016-06-08T19:53:50.774Z,25.76
2016-06-08T19:54:50.792Z,25.75
2016-06-08T19:55:50.811Z,25.74
2016-06-08T19:56:50.799Z,25.81
2016-06-08T19:57:50.833Z,25.69
2016-06-08T19:58:50.821Z,25.78
2016-06-08T19:59:50.824Z,25.74
2016-06-08T20:00:50.842Z,25.78
2016-06-08T20:01:50.845Z,25.67
2016-06-08T20:02:50.848Z,25.69
2016-06-08T20:03:50.884Z,25.7
2016-06-08T20:04:50.870Z,25.78
2016-06-08T20:05:50.905Z,25.67
2016-06-08T20:06:50.893Z,25.81
2016-06-08T20:07:50.895Z,25.69
2016-06-08T20:08:50.914Z,25.7
2016-06-08T20:09:50.902Z,25.71
2016-06-08T20:10:50.920Z,25.62
2016-06-08T20:11:50.938Z,25.71
2016-06-08T20:12:50.926Z,25.75
2016-06-08T20:13:50.945Z,25.69
2016-06-08T20:14:50.948Z,25.66
2016-06-08T20:15:50.951Z,25.66
2016-06-08T20:16:50.985Z,25.67
2016-06-08T20:17:51.629Z,25.67
2016-06-08T20:18:50.976Z,25.63
2016-06-08T20:19:50.838Z,25.67
2016-06-08T20:20:51.013Z,25.66
2016-06-08T20:21:51.032Z,25.63
2016-06-08T20:22:51.020Z,25.62
2016-06-08T20:23:51.037Z,25.66
2016-06-08T20:24:51.041Z,25.63
2016-06-08T20:25:51.060Z,25.71
2016-06-08T20:26:51.063Z,25.67
2016-06-08T20:27:51.050Z,25.59
2016-06-08T20:28:51.053Z,25.66
2016-06-08T20:29:51.073Z,25.69
2016-06-08T20:30:50.934Z,25.71
2016-06-08T20:31:52.281Z,25.66
2016-06-08T20:32:51.206Z,25.6
2016-06-08T20:33:51.115Z,25.63
2016-06-08T20:34:51.119Z,25.56
2016-06-08T20:35:51.122Z,25.52
2016-06-08T20:36:51.141Z,25.57
2016-06-08T20:37:51.144Z,25.6
2016-06-08T20:38:51.161Z,25.59
2016-06-08T20:39:51.150Z,25.62
2016-06-08T20:40:51.168Z,25.62
2016-06-08T20:41:51.171Z,25.56
2016-06-08T20:42:51.284Z,25.62
2016-06-08T20:43:51.193Z,25.54
2016-06-08T20:44:51.196Z,25.56
2016-06-08T20:45:51.308Z,25.56
2016-06-08T20:46:51.655Z,25.66
2016-06-08T20:47:51.221Z,25.56
2016-06-08T20:48:51.224Z,25.67
2016-06-08T20:49:51.243Z,25.66
2016-06-08T20:50:51.106Z,25.6
2016-06-08T20:51:51.124Z,25.64
2016-06-08T20:52:51.268Z,25.57
2016-06-08T20:53:51.271Z,25.64
2016-06-08T20:54:51.274Z,25.6
2016-06-08T20:55:51.294Z,25.54
2016-06-08T20:56:51.312Z,25.59
2016-06-08T20:57:51.299Z,25.59
2016-06-08T20:58:51.303Z,25.62
2016-06-08T20:59:51.321Z,25.59
2016-06-08T21:00:51.339Z,25.62
2016-06-08T21:01:52.623Z,25.66
2016-06-08T21:02:51.346Z,25.66
2016-06-08T21:03:51.364Z,25.62
2016-06-08T21:04:51.367Z,25.57
2016-06-08T21:05:51.355Z,25.62
2016-06-08T21:06:51.390Z,25.56
2016-06-08T21:07:51.376Z,25.64
2016-06-08T21:08:51.395Z,25.6
2016-06-08T21:09:51.399Z,25.56
2016-06-08T21:10:51.402Z,25.63
2016-06-08T21:11:51.421Z,25.63
2016-06-08T21:12:51.423Z,25.62
2016-06-08T21:13:51.427Z,25.63
2016-06-08T21:14:51.445Z,25.59
2016-06-08T21:15:51.464Z,25.56
2016-06-08T21:16:53.170Z,25.54
2016-06-08T21:17:51.517Z,25.49
2016-06-08T21:18:51.473Z,25.56
2016-06-08T21:19:51.320Z,25.59
2016-06-08T21:20:51.526Z,25.6
2016-06-08T21:21:51.498Z,25.6
2016-06-08T21:22:51.502Z,25.54
2016-06-08T21:23:51.567Z,25.57
2016-06-08T21:24:51.522Z,25.56
2016-06-08T21:25:51.542Z,25.51
2016-06-08T21:26:51.544Z,25.6
2016-06-08T21:27:51.563Z,25.51
2016-06-08T21:28:51.551Z,25.6
2016-06-08T21:29:51.569Z,25.51
2016-06-08T21:30:51.572Z,25.44
2016-06-08T21:31:51.575Z,25.54
2016-06-08T21:32:51.970Z,25.51
2016-06-08T21:33:51.581Z,25.48
2016-06-08T21:34:51.601Z,25.48
2016-06-08T21:35:51.620Z,25.56
2016-06-08T21:36:51.622Z,25.54
2016-06-08T21:37:51.626Z,25.56
2016-06-08T21:38:51.518Z,25.48
2016-06-08T21:39:51.632Z,25.49
2016-06-08T21:40:51.649Z,25.54
2016-06-08T21:41:51.653Z,25.56
2016-06-08T21:42:51.688Z,25.52
2016-06-08T21:43:51.675Z,25.54
2016-06-08T21:44:51.694Z,25.51
2016-06-08T21:45:51.697Z,25.6
2016-06-08T21:46:51.700Z,25.48
2016-06-08T21:47:51.796Z,25.52
2016-06-08T21:48:51.565Z,25.47
2016-06-08T21:49:51.725Z,25.56
2016-06-08T21:50:51.727Z,25.56
2016-06-08T21:51:51.747Z,25.42
2016-06-08T21:52:51.749Z,25.48
2016-06-08T21:53:51.783Z,25.45
2016-06-08T21:54:51.771Z,25.41
2016-06-08T21:55:51.774Z,25.42
2016-06-08T21:56:51.793Z,25.45
2016-06-08T21:57:51.780Z,25.48
2016-06-08T21:58:51.799Z,25.52
2016-06-08T21:59:51.818Z,25.41
2016-06-08T22:00:51.805Z,25.54
2016-06-08T22:01:51.825Z,25.45
2016-06-08T22:02:51.686Z,25.45
2016-06-08T22:03:51.831Z,25.42
2016-06-08T22:04:51.849Z,25.42
2016-06-08T22:05:51.851Z,25.45
2016-06-08T22:06:51.855Z,25.44
2016-06-08T22:07:51.889Z,25.41
2016-06-08T22:08:51.893Z,25.47
2016-06-08T22:09:51.880Z,25.47
2016-06-08T22:10:51.899Z,25.39
2016-06-08T22:11:51.902Z,25.41
2016-06-08T22:12:51.905Z,25.54
2016-06-08T22:13:51.909Z,25.42
2016-06-08T22:14:51.926Z,25.39
2016-06-08T22:15:52.273Z,25.42
2016-06-08T22:16:51.948Z,25.51
2016-06-08T22:17:51.952Z,25.47
2016-06-08T22:18:51.970Z,25.42
2016-06-08T22:19:51.972Z,25.49
2016-06-08T22:20:51.976Z,25.51
2016-06-08T22:21:51.978Z,25.44
2016-06-08T22:22:51.998Z,25.41
2016-06-08T22:23:51.985Z,25.44
2016-06-08T22:24:52.004Z,25.47
2016-06-08T22:25:52.007Z,25.47
2016-06-08T22:26:52.026Z,25.56
2016-06-08T22:27:52.044Z,25.39
2016-06-08T22:28:52.047Z,25.42
2016-06-08T22:29:52.051Z,25.49
2016-06-08T22:30:52.053Z,25.47
2016-06-08T22:31:51.901Z,25.47
2016-06-08T22:32:52.075Z,25.45
2016-06-08T22:33:52.095Z,25.47
2016-06-08T22:34:52.098Z,25.47
2016-06-08T22:35:52.085Z,25.44
2016-06-08T22:36:52.088Z,25.44
2016-06-08T22:37:52.122Z,25.41
2016-06-08T22:38:52.125Z,25.39
2016-06-08T22:39:52.144Z,25.37
2016-06-08T22:40:52.131Z,25.48
2016-06-08T22:41:52.151Z,25.47
2016-06-08T22:42:52.153Z,25.37
2016-06-08T22:43:52.157Z,25.47
2016-06-08T22:44:52.175Z,25.49
2016-06-08T22:45:52.177Z,25.48
2016-06-08T22:46:52.180Z,25.37
2016-06-08T22:47:52.888Z,25.37
2016-06-08T22:48:52.203Z,25.33
2016-06-08T22:49:52.206Z,25.39
2016-06-08T22:50:52.224Z,25.44